createdAt,value
2022-09-28T00:00:30.435Z,9.70
2022-09-28T00:01:06.666Z,8.84
2022-09-28T00:01:39.961Z,9.62
2022-09-28T00:02:12.411Z,8.70
2022-09-28T00:02:45.036Z,11.78
2022-09-28T00:03:17.589Z,23.60
2022-09-28T00:03:51.650Z,12.92
2022-09-28T00:04:23.918Z,21.90
2022-09-28T00:04:56.268Z,11.36
2022-09-28T00:05:28.628Z,11.56
2022-09-28T00:06:02.730Z,13.98
2022-09-28T00:06:35.022Z,11.54
2022-09-28T00:07:07.360Z,21.66
2022-09-28T00:07:39.655Z,17.32
2022-09-28T00:08:12.052Z,16.36
2022-09-28T00:08:44.362Z,16.44
2022-09-28T00:09:17.116Z,21.86
2022-09-28T00:09:49.502Z,15.36
2022-09-28T00:10:24.640Z,19.32
2022-09-28T00:10:57.249Z,13.50
2022-09-28T00:11:29.968Z,12.34
2022-09-28T00:12:02.230Z,11.72
2022-09-28T00:12:34.967Z,15.90
2022-09-28T00:13:08.725Z,11.40
2022-09-28T00:13:42.353Z,12.30
2022-09-28T00:14:15.674Z,8.78
2022-09-28T00:14:47.981Z,13.88
2022-09-28T00:15:20.301Z,27.80
2022-09-28T00:16:02.135Z,16.70
2022-09-28T00:16:35.763Z,13.20
2022-09-28T00:17:08.549Z,10.90
2022-09-28T00:17:40.927Z,16.12
2022-09-28T00:18:13.184Z,9.64
2022-09-28T00:18:46.221Z,28.32
2022-09-28T00:19:18.718Z,20.16
2022-09-28T00:19:51.015Z,12.68
2022-09-28T00:20:23.333Z,26.66
2022-09-28T00:21:01.922Z,11.56
2022-09-28T00:21:35.633Z,7.40
2022-09-28T00:22:08.063Z,7.08
2022-09-28T00:22:40.373Z,10.24
2022-09-28T00:23:12.645Z,8.12
2022-09-28T00:24:04.115Z,17.08
2022-09-28T00:24:36.333Z,10.46
2022-09-28T00:25:08.971Z,37.90
2022-09-28T00:25:41.286Z,16.36
2022-09-28T00:26:13.582Z,21.38
2022-09-28T00:26:50.541Z,43.46
2022-09-28T00:27:22.855Z,13.26
2022-09-28T00:27:55.329Z,11.50
2022-09-28T00:28:27.701Z,15.18
2022-09-28T00:29:01.106Z,22.04
2022-09-28T00:29:34.815Z,24.80
2022-09-28T00:30:07.639Z,8.26
2022-09-28T00:30:39.978Z,9.84
2022-09-28T00:31:13.304Z,35.34
2022-09-28T00:31:46.370Z,14.54
2022-09-28T00:32:19.180Z,10.42
2022-09-28T00:32:52.173Z,31.24
2022-09-28T00:33:24.976Z,35.04
2022-09-28T00:33:58.286Z,60.42
2022-09-28T00:34:32.192Z,15.92
2022-09-28T00:35:04.972Z,18.26
2022-09-28T00:35:37.314Z,21.60
2022-09-28T00:36:09.615Z,11.22
2022-09-28T00:36:44.465Z,14.76
2022-09-28T00:37:21.671Z,37.96
2022-09-28T00:37:53.967Z,79.20
2022-09-28T00:38:27.579Z,59.26
2022-09-28T00:39:03.146Z,19.96
2022-09-28T00:39:36.259Z,15.48
2022-09-28T00:40:08.799Z,37.70
2022-09-28T00:40:41.132Z,54.80
2022-09-28T00:41:13.931Z,23.94
2022-09-28T00:41:46.531Z,9.68
2022-09-28T00:42:22.959Z,12.42
2022-09-28T00:42:55.379Z,22.80
2022-09-28T00:43:28.300Z,15.18
2022-09-28T00:44:19.288Z,40.02
2022-09-28T00:44:52.465Z,78.64
2022-09-28T00:45:26.439Z,31.46
2022-09-28T00:46:00.469Z,15.48
2022-09-28T00:46:33.974Z,21.28
2022-09-28T00:47:12.129Z,66.88
2022-09-28T00:47:51.143Z,24.58
2022-09-28T00:48:24.786Z,82.42
2022-09-28T00:48:59.971Z,76.74
2022-09-28T00:49:34.897Z,21.00
2022-09-28T00:50:11.142Z,16.82
2022-09-28T00:50:43.959Z,36.50
2022-09-28T00:51:16.278Z,22.76
2022-09-28T00:51:49.138Z,69.68
2022-09-28T00:52:30.476Z,75.22
2022-09-28T00:53:10.715Z,63.64
2022-09-28T00:53:44.145Z,31.42
2022-09-28T00:54:16.844Z,33.42
2022-09-28T00:54:51.088Z,49.68
2022-09-28T00:55:28.057Z,35.10
2022-09-28T00:56:07.367Z,57.80
2022-09-28T00:56:40.698Z,49.22
2022-09-28T00:57:13.454Z,51.26
2022-09-28T00:57:47.647Z,22.60
2022-09-28T00:58:21.906Z,47.26
2022-09-28T00:58:55.261Z,43.08
2022-09-28T00:59:28.314Z,19.16
2022-09-28T01:00:01.797Z,17.60
2022-09-28T01:00:34.355Z,36.28
2022-09-28T01:01:06.850Z,18.38
2022-09-28T01:01:39.296Z,12.56
2022-09-28T01:02:12.525Z,13.32
2022-09-28T01:02:45.782Z,9.42
2022-09-28T01:03:18.084Z,27.52
2022-09-28T01:03:50.444Z,30.44
2022-09-28T01:04:26.951Z,11.82
2022-09-28T01:05:03.489Z,8.16
2022-09-28T01:05:36.962Z,7.76
2022-09-28T01:06:09.662Z,7.38
2022-09-28T01:06:43.179Z,10.70
2022-09-28T01:07:16.529Z,8.62
2022-09-28T01:07:48.920Z,8.38
2022-09-28T01:08:22.486Z,4.74
2022-09-28T01:08:59.204Z,6.72
2022-09-28T01:09:32.658Z,11.18
2022-09-28T01:10:06.063Z,9.96
2022-09-28T01:10:39.713Z,6.82
2022-09-28T01:11:12.009Z,10.88
2022-09-28T01:11:44.342Z,7.24
2022-09-28T01:12:16.815Z,5.94
2022-09-28T01:12:49.253Z,6.96
2022-09-28T01:13:23.043Z,5.02
2022-09-28T01:13:56.167Z,8.20
2022-09-28T01:14:28.890Z,4.94
2022-09-28T01:15:02.250Z,4.72
2022-09-28T01:15:37.486Z,7.98
2022-09-28T01:16:19.348Z,6.16
2022-09-28T01:16:56.603Z,4.58
2022-09-28T01:17:54.991Z,5.24
2022-09-28T01:18:31.685Z,8.24
2022-09-28T01:19:22.766Z,4.16
2022-09-28T01:20:13.654Z,8.94
2022-09-28T01:21:08.676Z,17.68
2022-09-28T01:21:54.271Z,37.28
2022-09-28T01:23:06.701Z,11.88
2022-09-28T01:23:57.746Z,95.46
2022-09-28T01:24:48.602Z,115.62
2022-09-28T01:25:30.150Z,86.92
2022-09-28T01:26:20.794Z,123.06
2022-09-28T01:26:56.536Z,133.15
2022-09-28T01:27:32.780Z,173.56
2022-09-28T01:28:07.864Z,158.92
2022-09-28T01:28:43.247Z,165.26
2022-09-28T01:29:30.641Z,227.22
2022-09-28T01:30:08.934Z,251.20
2022-09-28T01:30:55.780Z,245.57
2022-09-28T01:31:30.697Z,272.80
2022-09-28T01:32:26.283Z,241.06
2022-09-28T01:33:10.811Z,270.10
2022-09-28T01:33:53.307Z,277.90
2022-09-28T01:34:28.895Z,304.30
2022-09-28T01:35:08.006Z,296.60
2022-09-28T01:35:47.858Z,296.52
2022-09-28T01:36:25.306Z,255.60
2022-09-28T01:37:01.296Z,263.90
2022-09-28T01:37:42.127Z,279.98
2022-09-28T01:38:33.269Z,262.35
2022-09-28T01:39:11.330Z,287.73
2022-09-28T01:39:47.177Z,256.65
2022-09-28T01:40:21.778Z,249.45
2022-09-28T01:40:55.224Z,262.10
2022-09-28T01:41:29.529Z,231.10
2022-09-28T01:42:05.253Z,248.04
2022-09-28T01:42:39.255Z,252.12
2022-09-28T01:43:20.308Z,241.14
2022-09-28T01:43:55.526Z,262.36
2022-09-28T01:44:30.186Z,215.04
2022-09-28T01:45:04.960Z,246.92
2022-09-28T01:45:41.398Z,258.10
2022-09-28T01:46:13.883Z,220.26
2022-09-28T01:46:48.621Z,249.44
2022-09-28T01:47:23.345Z,252.18
2022-09-28T01:47:58.425Z,244.63
2022-09-28T01:48:37.560Z,265.60
2022-09-28T01:49:13.082Z,250.02
2022-09-28T01:49:47.465Z,244.88
2022-09-28T01:50:22.185Z,226.92
2022-09-28T01:50:57.649Z,245.93
2022-09-28T01:51:36.083Z,259.60
2022-09-28T01:52:28.134Z,270.40
2022-09-28T01:53:11.222Z,271.50
2022-09-28T01:53:47.061Z,273.08
2022-09-28T01:54:29.141Z,265.80
2022-09-28T01:55:20.483Z,271.75
2022-09-28T01:55:55.589Z,268.00
2022-09-28T01:56:31.075Z,260.20
2022-09-28T01:57:09.086Z,256.58
2022-09-28T01:57:45.953Z,252.52
2022-09-28T01:58:30.375Z,242.50
2022-09-28T01:59:12.595Z,245.98
2022-09-28T01:59:49.739Z,277.63
2022-09-28T02:00:24.109Z,269.70
2022-09-28T02:00:59.744Z,269.56
2022-09-28T02:01:40.803Z,259.77
2022-09-28T02:02:16.651Z,275.04
2022-09-28T02:02:54.171Z,271.80
2022-09-28T02:03:39.105Z,269.24
2022-09-28T02:04:14.336Z,280.00
2022-09-28T02:04:51.583Z,256.70
2022-09-28T02:05:27.359Z,284.67
2022-09-28T02:06:01.080Z,275.23
2022-09-28T02:06:39.400Z,273.92
2022-09-28T02:07:18.431Z,279.25
2022-09-28T02:07:56.817Z,268.92
2022-09-28T02:08:32.198Z,280.08
2022-09-28T02:09:12.965Z,303.63
2022-09-28T02:09:55.418Z,313.00
2022-09-28T02:10:32.227Z,291.27
2022-09-28T02:11:14.727Z,318.70
2022-09-28T02:11:49.590Z,345.35
2022-09-28T02:12:42.756Z,403.33
2022-09-28T02:13:17.957Z,275.27
2022-09-28T02:13:53.060Z,245.28
2022-09-28T02:14:26.685Z,249.23
2022-09-28T02:15:04.437Z,231.50
2022-09-28T02:15:47.077Z,238.35
2022-09-28T02:16:25.474Z,235.32
2022-09-28T02:16:58.503Z,253.73
2022-09-28T02:17:34.240Z,224.62
2022-09-28T02:18:07.018Z,226.07
2022-09-28T02:18:39.306Z,212.50
2022-09-28T02:19:13.680Z,221.64
2022-09-28T02:19:46.314Z,225.36
2022-09-28T02:20:19.084Z,210.77
2022-09-28T02:20:56.478Z,214.68
2022-09-28T02:21:34.189Z,242.00
2022-09-28T02:22:25.066Z,233.52
2022-09-28T02:22:59.964Z,242.68
2022-09-28T02:23:35.676Z,241.10
2022-09-28T02:24:10.901Z,241.60
2022-09-28T02:24:52.968Z,206.60
2022-09-28T02:25:39.216Z,237.27
2022-09-28T02:26:14.181Z,202.80
2022-09-28T02:26:48.349Z,239.88
2022-09-28T02:27:41.076Z,247.98
2022-09-28T02:28:13.802Z,243.12
2022-09-28T02:28:46.290Z,235.18
2022-09-28T02:29:18.759Z,253.06
2022-09-28T02:29:51.212Z,222.72
2022-09-28T02:30:23.595Z,216.04
2022-09-28T02:30:55.943Z,219.54
2022-09-28T02:31:28.661Z,216.34
2022-09-28T02:32:01.194Z,224.76
2022-09-28T02:32:35.431Z,179.26
2022-09-28T02:33:19.761Z,220.14
2022-09-28T02:33:52.497Z,222.48
2022-09-28T02:34:24.843Z,245.42
2022-09-28T02:34:57.254Z,212.96
2022-09-28T02:35:30.317Z,222.44
2022-09-28T02:36:03.949Z,204.36
2022-09-28T02:36:40.694Z,208.56
2022-09-28T02:37:13.141Z,234.28
2022-09-28T02:37:46.126Z,186.84
2022-09-28T02:38:19.407Z,196.32
2022-09-28T02:38:52.225Z,225.34
2022-09-28T02:39:25.250Z,216.10
2022-09-28T02:39:57.587Z,208.68
2022-09-28T02:40:31.996Z,202.86
2022-09-28T02:41:09.580Z,229.32
2022-09-28T02:41:47.438Z,212.90
2022-09-28T02:42:43.934Z,213.12
2022-09-28T02:43:16.598Z,261.45
2022-09-28T02:44:04.338Z,254.64
2022-09-28T02:44:37.911Z,276.60
2022-09-28T02:45:36.839Z,231.92
2022-09-28T02:46:16.029Z,262.94
2022-09-28T02:47:10.540Z,225.02
2022-09-28T02:48:01.561Z,265.50
2022-09-28T02:48:43.567Z,257.27
2022-09-28T02:49:32.488Z,265.62
2022-09-28T02:50:04.958Z,266.52
2022-09-28T02:50:56.318Z,252.84
2022-09-28T02:51:37.027Z,276.00
2022-09-28T02:52:47.061Z,262.86
2022-09-28T02:53:22.316Z,245.04
2022-09-28T02:53:59.897Z,249.52
2022-09-28T02:54:50.709Z,256.20
2022-09-28T02:55:32.009Z,258.62
2022-09-28T02:56:18.538Z,266.52
2022-09-28T02:57:10.508Z,266.17
2022-09-28T02:57:42.880Z,261.75
2022-09-28T02:58:41.665Z,242.12
2022-09-28T02:59:29.944Z,255.30
2022-09-28T03:00:09.419Z,265.14
2022-09-28T03:00:45.447Z,272.33
2022-09-28T03:01:23.483Z,258.55
2022-09-28T03:02:07.765Z,241.36
2022-09-28T03:02:47.280Z,242.95
2022-09-28T03:03:19.644Z,242.12
2022-09-28T03:03:58.194Z,255.70
2022-09-28T03:04:40.033Z,265.05
2022-09-28T03:05:30.227Z,269.80
2022-09-28T03:06:11.462Z,279.88
2022-09-28T03:07:00.978Z,276.15
2022-09-28T03:07:35.670Z,270.50
2022-09-28T03:08:15.717Z,276.60
2022-09-28T03:08:56.986Z,279.52
2022-09-28T03:09:47.518Z,265.60
2022-09-28T03:10:24.196Z,290.23
2022-09-28T03:10:59.213Z,258.10
2022-09-28T03:11:37.268Z,283.42
2022-09-28T03:12:11.532Z,253.77
2022-09-28T03:12:45.490Z,218.57
2022-09-28T03:13:18.350Z,255.52
2022-09-28T03:13:51.980Z,249.57
2022-09-28T03:14:26.873Z,243.60
2022-09-28T03:15:06.197Z,254.32
2022-09-28T03:15:38.511Z,251.90
2022-09-28T03:16:12.771Z,205.80
2022-09-28T03:16:46.750Z,233.98
2022-09-28T03:17:20.935Z,248.26
2022-09-28T03:17:53.506Z,245.90
2022-09-28T03:18:26.248Z,246.57
2022-09-28T03:18:58.714Z,261.94
2022-09-28T03:19:32.479Z,249.73
2022-09-28T03:20:06.065Z,246.98
2022-09-28T03:20:38.895Z,238.98
2022-09-28T03:21:12.285Z,241.26
2022-09-28T03:21:44.873Z,238.23
2022-09-28T03:22:17.291Z,250.52
2022-09-28T03:23:06.429Z,239.54
2022-09-28T03:23:42.426Z,243.55
2022-09-28T03:24:15.065Z,224.88
2022-09-28T03:24:47.351Z,217.46
2022-09-28T03:25:19.879Z,218.88
2022-09-28T03:25:52.404Z,213.12
2022-09-28T03:26:25.021Z,223.18
2022-09-28T03:26:57.480Z,213.96
2022-09-28T03:27:29.808Z,215.74
2022-09-28T03:28:02.176Z,200.44
2022-09-28T03:28:36.792Z,228.84
2022-09-28T03:29:10.047Z,176.15
2022-09-28T03:29:43.210Z,217.10
2022-09-28T03:30:15.994Z,203.65
2022-09-28T03:30:51.338Z,224.55
2022-09-28T03:31:24.048Z,218.07
2022-09-28T03:31:56.673Z,197.13
2022-09-28T03:32:28.985Z,193.25
2022-09-28T03:33:02.719Z,205.60
2022-09-28T03:33:37.268Z,237.95
2022-09-28T03:34:09.798Z,226.10
2022-09-28T03:34:42.637Z,229.48
2022-09-28T03:35:15.376Z,222.10
2022-09-28T03:35:48.523Z,198.85
2022-09-28T03:36:21.574Z,215.38
2022-09-28T03:36:54.062Z,173.92
2022-09-28T03:37:27.458Z,175.58
2022-09-28T03:38:00.382Z,215.43
2022-09-28T03:38:35.055Z,226.98
2022-09-28T03:39:07.401Z,217.55
2022-09-28T03:39:39.944Z,217.28
2022-09-28T03:40:12.477Z,204.74
2022-09-28T03:40:45.318Z,236.52
2022-09-28T03:41:17.821Z,208.50
2022-09-28T03:41:50.336Z,196.63
2022-09-28T03:42:25.020Z,203.82
2022-09-28T03:42:57.418Z,215.98
2022-09-28T03:43:31.428Z,212.02
2022-09-28T03:44:05.995Z,227.05
2022-09-28T03:44:39.203Z,218.25
2022-09-28T03:45:11.569Z,232.70
2022-09-28T03:45:44.259Z,223.32
2022-09-28T03:46:16.747Z,246.88
2022-09-28T03:46:53.662Z,252.62
2022-09-28T03:47:25.993Z,231.40
2022-09-28T03:47:58.410Z,239.02
2022-09-28T03:48:32.942Z,240.98
2022-09-28T03:49:05.556Z,241.85
2022-09-28T03:49:38.114Z,235.27
2022-09-28T03:50:10.620Z,191.18
2022-09-28T03:50:42.950Z,195.56
2022-09-28T03:51:15.497Z,230.16
2022-09-28T03:51:47.876Z,218.63
2022-09-28T03:52:20.148Z,229.10
2022-09-28T03:52:52.482Z,203.50
2022-09-28T03:53:24.823Z,254.65
2022-09-28T03:53:57.414Z,237.45
2022-09-28T03:54:30.170Z,241.30
2022-09-28T03:55:02.517Z,201.20
2022-09-28T03:55:35.140Z,245.55
2022-09-28T03:56:08.151Z,203.42
2022-09-28T03:56:41.058Z,192.07
2022-09-28T03:57:13.419Z,232.80
2022-09-28T03:57:45.819Z,243.88
2022-09-28T03:58:18.235Z,234.55
2022-09-28T03:58:50.475Z,235.05
2022-09-28T03:59:23.076Z,263.10
2022-09-28T03:59:55.360Z,267.52
2022-09-28T04:00:28.351Z,224.76
2022-09-28T04:01:05.067Z,253.57
2022-09-28T04:01:37.786Z,211.60
2022-09-28T04:02:10.464Z,224.20
2022-09-28T04:02:42.730Z,212.73
2022-09-28T04:03:15.145Z,216.23
2022-09-28T04:03:48.238Z,204.80
2022-09-28T04:04:20.520Z,228.74
2022-09-28T04:04:52.857Z,178.55
2022-09-28T04:05:25.681Z,212.48
2022-09-28T04:05:58.430Z,213.13
2022-09-28T04:06:30.856Z,204.98
2022-09-28T04:07:03.195Z,176.45
2022-09-28T04:07:35.524Z,216.85
2022-09-28T04:08:08.134Z,186.64
2022-09-28T04:08:40.534Z,196.30
2022-09-28T04:09:14.449Z,197.15
2022-09-28T04:09:47.663Z,226.48
2022-09-28T04:10:19.981Z,212.64
2022-09-28T04:10:52.401Z,247.16
2022-09-28T04:11:24.896Z,225.38
2022-09-28T04:12:03.871Z,235.02
2022-09-28T04:12:38.232Z,234.16
2022-09-28T04:13:11.333Z,248.30
2022-09-28T04:13:47.636Z,235.72
2022-09-28T04:14:20.184Z,252.78
2022-09-28T04:14:53.316Z,242.10
2022-09-28T04:15:25.757Z,242.88
2022-09-28T04:15:59.525Z,243.54
2022-09-28T04:16:33.896Z,240.62
2022-09-28T04:17:13.534Z,250.07
2022-09-28T04:17:46.244Z,232.80
2022-09-28T04:18:33.649Z,272.50
2022-09-28T04:19:26.975Z,283.13
2022-09-28T04:20:18.258Z,282.35
2022-09-28T04:21:09.291Z,279.60
2022-09-28T04:22:06.179Z,289.90
2022-09-28T04:22:38.582Z,271.60
2022-09-28T04:23:10.914Z,259.50
2022-09-28T04:23:43.742Z,251.80
2022-09-28T04:24:17.003Z,271.95
2022-09-28T04:24:49.298Z,249.38
2022-09-28T04:25:21.945Z,260.50
2022-09-28T04:25:54.889Z,255.82
2022-09-28T04:26:28.131Z,260.14
2022-09-28T04:27:20.516Z,261.48
2022-09-28T04:28:12.854Z,276.88
2022-09-28T04:29:06.809Z,267.13
2022-09-28T04:29:44.008Z,283.80
2022-09-28T04:30:17.677Z,276.88
2022-09-28T04:30:51.390Z,259.32
2022-09-28T04:31:24.836Z,230.46
2022-09-28T04:31:57.278Z,259.27
2022-09-28T04:32:38.470Z,252.55
2022-09-28T04:33:10.794Z,215.75
2022-09-28T04:33:43.341Z,249.93
2022-09-28T04:34:17.706Z,243.40
2022-09-28T04:34:50.076Z,244.38
2022-09-28T04:35:22.386Z,237.00
2022-09-28T04:35:54.917Z,268.30
2022-09-28T04:36:27.240Z,275.73
2022-09-28T04:36:59.677Z,284.17
2022-09-28T04:37:32.149Z,284.92
2022-09-28T04:38:04.545Z,267.33
2022-09-28T04:38:52.365Z,294.88
2022-09-28T04:39:26.230Z,291.17
2022-09-28T04:40:01.256Z,270.13
2022-09-28T04:40:33.773Z,249.73
2022-09-28T04:41:06.293Z,238.38
2022-09-28T04:41:38.774Z,255.35
2022-09-28T04:42:12.209Z,263.80
2022-09-28T04:42:44.949Z,247.23
2022-09-28T04:43:17.470Z,244.02
2022-09-28T04:43:50.158Z,264.73
2022-09-28T04:44:22.496Z,253.98
2022-09-28T04:44:59.100Z,262.60
2022-09-28T04:45:31.802Z,259.83
2022-09-28T04:46:10.381Z,244.00
2022-09-28T04:46:48.815Z,235.13
2022-09-28T04:47:35.948Z,263.75
2022-09-28T04:48:25.481Z,274.40
2022-09-28T04:49:15.101Z,238.07
2022-09-28T04:50:39.071Z,275.15
2022-09-28T04:51:11.775Z,275.02
2022-09-28T04:51:44.073Z,268.30
2022-09-28T04:52:18.502Z,267.08
2022-09-28T04:52:53.933Z,244.23
2022-09-28T04:53:27.237Z,264.85
2022-09-28T04:53:59.699Z,239.52
2022-09-28T04:54:32.178Z,237.27
2022-09-28T04:55:05.628Z,249.88
2022-09-28T04:55:39.236Z,241.90
2022-09-28T04:56:12.809Z,239.65
2022-09-28T04:56:45.851Z,252.27
2022-09-28T04:57:18.342Z,259.42
2022-09-28T04:57:50.752Z,250.20
2022-09-28T04:58:23.510Z,237.65
2022-09-28T04:58:56.279Z,235.65
2022-09-28T04:59:28.632Z,201.04
2022-09-28T05:00:01.075Z,246.68
2022-09-28T05:00:36.118Z,246.88
2022-09-28T05:01:38.018Z,239.26
2022-09-28T05:02:29.773Z,257.60
2022-09-28T05:03:21.366Z,277.48
2022-09-28T05:04:14.290Z,307.15
2022-09-28T05:05:21.820Z,305.17
2022-09-28T05:06:15.708Z,289.50
2022-09-28T05:06:52.856Z,289.90
2022-09-28T05:07:26.485Z,284.75
2022-09-28T05:07:59.553Z,260.48
2022-09-28T05:08:31.997Z,277.05
2022-09-28T05:09:05.121Z,272.15
2022-09-28T05:09:38.746Z,289.90
2022-09-28T05:10:11.338Z,274.40
2022-09-28T05:10:45.632Z,265.73
2022-09-28T05:11:20.260Z,283.63
2022-09-28T05:11:53.397Z,298.23
2022-09-28T05:12:27.783Z,296.50
2022-09-28T05:13:01.711Z,299.85
2022-09-28T05:13:35.996Z,289.52
2022-09-28T05:14:08.702Z,286.88
2022-09-28T05:14:41.472Z,285.75
2022-09-28T05:15:13.789Z,264.24
2022-09-28T05:15:46.172Z,293.20
2022-09-28T05:16:21.009Z,306.73
2022-09-28T05:17:16.228Z,339.08
2022-09-28T05:18:04.628Z,301.52
2022-09-28T05:18:54.932Z,309.02
2022-09-28T05:19:27.454Z,279.95
2022-09-28T05:20:05.986Z,283.52
2022-09-28T05:20:42.322Z,272.75
2022-09-28T05:21:15.999Z,292.58
2022-09-28T05:21:49.307Z,275.13
2022-09-28T05:22:22.035Z,290.52
2022-09-28T05:22:54.401Z,278.92
2022-09-28T05:23:27.365Z,281.33
2022-09-28T05:24:07.681Z,281.55
2022-09-28T05:24:42.957Z,277.70
2022-09-28T05:25:15.492Z,263.34
2022-09-28T05:26:06.738Z,297.30
2022-09-28T05:26:41.278Z,281.00
2022-09-28T05:27:15.500Z,268.56
2022-09-28T05:27:57.338Z,271.83
2022-09-28T05:28:45.107Z,274.92
2022-09-28T05:29:43.355Z,308.27
2022-09-28T05:30:47.821Z,295.73
2022-09-28T05:31:32.670Z,295.13
2022-09-28T05:32:25.311Z,297.52
2022-09-28T05:33:10.718Z,296.17
2022-09-28T05:33:47.499Z,293.40
2022-09-28T05:34:19.874Z,277.04
2022-09-28T05:34:52.218Z,281.45
2022-09-28T05:35:30.555Z,275.75
2022-09-28T05:36:03.788Z,264.70
2022-09-28T05:36:37.273Z,279.75
2022-09-28T05:37:10.346Z,280.60
2022-09-28T05:37:43.061Z,241.80
2022-09-28T05:38:15.343Z,260.92
2022-09-28T05:38:49.076Z,261.70
2022-09-28T05:39:21.495Z,248.55
2022-09-28T05:39:53.850Z,275.30
2022-09-28T05:40:26.350Z,273.38
2022-09-28T05:41:01.161Z,257.30
2022-09-28T05:41:35.686Z,266.42
2022-09-28T05:42:08.416Z,240.77
2022-09-28T05:42:41.155Z,252.74
2022-09-28T05:43:13.546Z,248.22
2022-09-28T05:43:46.041Z,253.94
2022-09-28T05:44:18.692Z,260.33
2022-09-28T05:44:53.630Z,259.40
2022-09-28T05:45:25.974Z,272.25
2022-09-28T05:45:59.216Z,262.55
2022-09-28T05:46:31.807Z,268.00
2022-09-28T05:47:06.176Z,247.20
2022-09-28T05:47:39.711Z,247.28
2022-09-28T05:48:12.255Z,249.78
2022-09-28T05:48:44.603Z,228.18
2022-09-28T05:49:17.429Z,253.73
2022-09-28T05:49:49.787Z,231.85
2022-09-28T05:50:22.142Z,241.75
2022-09-28T05:50:54.843Z,232.90
2022-09-28T05:51:27.132Z,242.24
2022-09-28T05:51:59.974Z,234.64
2022-09-28T05:52:32.353Z,237.28
2022-09-28T05:53:06.077Z,255.32
2022-09-28T05:53:38.526Z,228.70
2022-09-28T05:54:11.000Z,222.20
2022-09-28T05:54:47.255Z,264.94
2022-09-28T05:55:20.068Z,221.24
2022-09-28T05:55:52.534Z,247.23
2022-09-28T05:56:24.965Z,260.17
2022-09-28T05:56:58.317Z,207.77
2022-09-28T05:57:32.212Z,229.30
2022-09-28T05:58:06.011Z,235.56
2022-09-28T05:58:38.570Z,244.90
2022-09-28T05:59:12.303Z,250.82
2022-09-28T05:59:44.942Z,221.86
2022-09-28T06:00:17.445Z,236.60
2022-09-28T06:00:57.681Z,253.57
2022-09-28T06:01:30.052Z,228.88
2022-09-28T06:02:05.160Z,246.70
2022-09-28T06:02:37.751Z,254.85
2022-09-28T06:03:11.820Z,243.00
2022-09-28T06:03:44.212Z,237.88
2022-09-28T06:04:16.977Z,249.34
2022-09-28T06:04:51.371Z,266.58
2022-09-28T06:05:24.333Z,248.82
2022-09-28T06:05:56.727Z,276.48
2022-09-28T06:06:30.290Z,261.77
2022-09-28T06:07:02.683Z,298.75
2022-09-28T06:07:35.110Z,279.46
2022-09-28T06:08:08.596Z,283.73
2022-09-28T06:08:44.020Z,266.38
2022-09-28T06:09:31.856Z,281.25
2022-09-28T06:10:07.253Z,246.10
2022-09-28T06:10:46.403Z,246.68
2022-09-28T06:11:19.926Z,278.80
2022-09-28T06:11:53.235Z,285.80
2022-09-28T06:12:45.766Z,330.80
2022-09-28T06:13:20.971Z,290.77
2022-09-28T06:13:54.758Z,288.27
2022-09-28T06:14:27.641Z,292.42
2022-09-28T06:15:01.477Z,274.25
2022-09-28T06:15:34.584Z,276.64
2022-09-28T06:16:10.727Z,242.98
2022-09-28T06:16:44.049Z,297.36
2022-09-28T06:17:18.101Z,272.10
2022-09-28T06:17:58.718Z,256.14
2022-09-28T06:18:41.816Z,309.85
2022-09-28T06:19:16.942Z,312.42
2022-09-28T06:20:01.690Z,283.66
2022-09-28T06:20:52.446Z,320.23
2022-09-28T06:21:36.235Z,319.08
2022-09-28T06:22:09.345Z,294.50
2022-09-28T06:22:52.609Z,267.02
2022-09-28T06:23:25.038Z,247.14
2022-09-28T06:23:57.320Z,285.52
2022-09-28T06:24:30.509Z,271.23
2022-09-28T06:25:03.221Z,283.16
2022-09-28T06:25:35.691Z,278.98
2022-09-28T06:26:08.267Z,273.30
2022-09-28T06:26:40.831Z,299.02
2022-09-28T06:27:13.999Z,282.32
2022-09-28T06:28:06.670Z,272.80
2022-09-28T06:28:39.183Z,297.10
2022-09-28T06:29:18.671Z,281.86
2022-09-28T06:29:52.276Z,296.33
2022-09-28T06:30:27.504Z,309.17
2022-09-28T06:31:00.907Z,262.06
2022-09-28T06:31:34.018Z,274.78
2022-09-28T06:32:07.770Z,265.68
2022-09-28T06:32:42.302Z,274.46
2022-09-28T06:33:15.605Z,231.74
2022-09-28T06:33:48.411Z,259.12
2022-09-28T06:34:21.648Z,263.48
2022-09-28T06:34:56.363Z,244.04
2022-09-28T06:35:31.145Z,252.36
2022-09-28T06:36:03.492Z,260.27
2022-09-28T06:36:35.942Z,273.70
2022-09-28T06:37:08.474Z,260.96
2022-09-28T06:37:44.568Z,240.40
2022-09-28T06:38:17.003Z,249.35
2022-09-28T06:38:49.405Z,260.30
2022-09-28T06:39:22.538Z,274.52
2022-09-28T06:39:55.986Z,263.18
2022-09-28T06:40:28.976Z,257.96
2022-09-28T06:41:01.873Z,229.22
2022-09-28T06:41:34.338Z,264.94
2022-09-28T06:42:19.209Z,261.54
2022-09-28T06:43:24.342Z,271.74
2022-09-28T06:44:15.600Z,285.36
2022-09-28T06:45:07.182Z,259.84
2022-09-28T06:45:55.696Z,262.98
2022-09-28T06:46:52.246Z,256.86
2022-09-28T06:47:46.456Z,241.58
2022-09-28T06:48:35.323Z,276.22
2022-09-28T06:49:09.777Z,278.98
2022-09-28T06:50:12.474Z,302.18
2022-09-28T06:51:16.774Z,418.70
2022-09-28T06:52:06.771Z,275.46
2022-09-28T06:53:02.162Z,275.48
2022-09-28T06:53:54.107Z,274.34
2022-09-28T06:54:45.175Z,320.42
2022-09-28T06:55:46.367Z,273.34
2022-09-28T06:56:19.825Z,253.12
2022-09-28T06:56:53.046Z,265.54
2022-09-28T06:57:25.828Z,295.13
2022-09-28T06:58:05.567Z,312.73
2022-09-28T06:58:38.110Z,325.98
2022-09-28T06:59:10.810Z,175.82
2022-09-28T06:59:44.013Z,169.54
2022-09-28T07:00:16.453Z,144.52
2022-09-28T07:00:52.095Z,127.88
2022-09-28T07:01:24.623Z,125.88
2022-09-28T07:02:32.264Z,152.06
2022-09-28T07:03:23.216Z,266.88
2022-09-28T07:03:58.335Z,272.66
2022-09-28T07:04:48.987Z,201.76
2022-09-28T07:05:44.249Z,118.90
2022-09-28T07:06:47.537Z,155.24
2022-09-28T07:07:43.050Z,163.16
2022-09-28T07:08:28.910Z,167.34
2022-09-28T07:09:26.908Z,181.62
2022-09-28T07:10:24.827Z,147.12
2022-09-28T07:11:27.110Z,114.52
2022-09-28T07:12:15.831Z,133.86
2022-09-28T07:12:53.953Z,143.82
2022-09-28T07:13:49.930Z,137.84
2022-09-28T07:14:46.277Z,148.76
2022-09-28T07:15:18.095Z,137.42
2022-09-28T07:15:57.832Z,140.24
2022-09-28T07:16:54.275Z,139.60
2022-09-28T07:17:23.272Z,125.72
2022-09-28T07:18:03.086Z,125.04
2022-09-28T07:18:36.518Z,147.16
2022-09-28T07:19:09.891Z,127.50
2022-09-28T07:19:42.272Z,107.80
2022-09-28T07:20:19.163Z,158.58
2022-09-28T07:20:54.703Z,148.68
2022-09-28T07:21:30.455Z,133.66
2022-09-28T07:22:06.416Z,116.32
2022-09-28T07:22:43.344Z,143.66
2022-09-28T07:23:20.220Z,160.66
2022-09-28T07:24:12.648Z,164.22
2022-09-28T07:25:03.639Z,173.58
2022-09-28T07:26:08.353Z,141.06
2022-09-28T07:27:07.626Z,200.90
2022-09-28T07:28:12.249Z,185.86
2022-09-28T07:29:03.702Z,205.26
2022-09-28T07:29:42.591Z,198.23
2022-09-28T07:30:29.702Z,199.42
2022-09-28T07:31:25.442Z,320.78
2022-09-28T07:32:40.539Z,290.36
2022-09-28T07:33:32.959Z,293.74
2022-09-28T07:34:25.514Z,300.90
2022-09-28T07:35:09.886Z,357.24
2022-09-28T07:35:52.759Z,238.38
2022-09-28T07:36:27.209Z,271.60
2022-09-28T07:36:59.840Z,337.40
2022-09-28T07:37:32.324Z,366.66
2022-09-28T07:38:05.349Z,277.86
2022-09-28T07:38:38.572Z,259.92
2022-09-28T07:39:12.351Z,239.46
2022-09-28T07:40:04.042Z,211.64
2022-09-28T07:40:57.351Z,208.84
2022-09-28T07:41:33.191Z,241.84
2022-09-28T07:42:08.178Z,231.26
2022-09-28T07:42:41.393Z,244.00
2022-09-28T07:43:17.060Z,233.76
2022-09-28T07:43:50.417Z,193.72
2022-09-28T07:44:22.898Z,211.22
2022-09-28T07:44:59.251Z,235.96
2022-09-28T07:45:34.474Z,191.94
2022-09-28T07:46:09.627Z,233.92
2022-09-28T07:46:43.548Z,226.04
2022-09-28T07:47:35.351Z,240.04
2022-09-28T07:48:26.341Z,227.30
2022-09-28T07:49:28.004Z,169.18
2022-09-28T07:50:21.504Z,190.46